sensor_id;sensor_type;location;lat;lon;timestamp;pressure;altitude;pressure_sealevel;temperature;humidity
5872;BME280;2962;51.312;7.378;2023-05-21T00:01:38;97597.59;;;10.75;100.00
5872;BME280;2962;51.312;7.378;2023-05-21T00:04:04;97600.38;;;10.79;100.00
5872;BME280;2962;51.312;7.378;2023-05-21T00:06:33;97591.31;;;10.71;100.00
5872;BME280;2962;51.312;7.378;2023-05-21T00:09:03;97590.91;;;10.69;100.00
5872;BME280;2962;51.312;7.378;2023-05-21T00:11:29;97577.09;;;10.59;100.00
5872;BME280;2962;51.312;7.378;2023-05-21T00:13:54;97591.19;;;10.64;100.00
5872;BME280;2962;51.312;7.378;2023-05-21T00:16:22;97588.91;;;10.66;100.00
5872;BME280;2962;51.312;7.378;2023-05-21T00:18:50;97593.91;;;10.64;100.00
5872;BME280;2962;51.312;7.378;2023-05-21T00:21:19;97584.63;;;10.65;100.00
5872;BME280;2962;51.312;7.378;2023-05-21T00:23:50;97577.94;;;10.63;100.00
5872;BME280;2962;51.312;7.378;2023-05-21T00:26:15;97576.00;;;10.63;100.00
5872;BME280;2962;51.312;7.378;2023-05-21T00:28:40;97570.44;;;10.56;100.00
5872;BME280;2962;51.312;7.378;2023-05-21T00:31:05;97564.22;;;10.56;100.00
5872;BME280;2962;51.312;7.378;2023-05-21T00:33:31;97555.25;;;10.55;100.00
5872;BME280;2962;51.312;7.378;2023-05-21T00:35:56;97568.22;;;10.62;100.00
5872;BME280;2962;51.312;7.378;2023-05-21T00:38:22;97562.59;;;10.51;100.00
5872;BME280;2962;51.312;7.378;2023-05-21T00:40:48;97551.56;;;10.44;100.00
5872;BME280;2962;51.312;7.378;2023-05-21T00:43:13;97561.03;;;10.50;100.00
5872;BME280;2962;51.312;7.378;2023-05-21T00:45:42;97562.59;;;10.51;100.00
5872;BME280;2962;51.312;7.378;2023-05-21T00:48:09;97557.38;;;10.42;100.00
5872;BME280;2962;51.312;7.378;2023-05-21T00:50:35;97557.84;;;10.48;100.00
5872;BME280;2962;51.312;7.378;2023-05-21T00:53:03;97548.38;;;10.38;100.00
5872;BME280;2962;51.312;7.378;2023-05-21T00:55:29;97553.13;;;10.45;100.00
5872;BME280;2962;51.312;7.378;2023-05-21T00:57:55;97548.44;;;10.42;100.00
5872;BME280;2962;51.312;7.378;2023-05-21T01:00:21;97551.25;;;10.49;100.00
5872;BME280;2962;51.312;7.378;2023-05-21T01:02:48;97548.25;;;10.54;100.00
5872;BME280;2962;51.312;7.378;2023-05-21T01:05:14;97545.41;;;10.47;100.00
5872;BME280;2962;51.312;7.378;2023-05-21T01:07:40;97534.06;;;10.45;100.00
5872;BME280;2962;51.312;7.378;2023-05-21T01:10:07;97547.69;;;10.45;100.00
5872;BME280;2962;51.312;7.378;2023-05-21T01:12:41;97543.78;;;10.42;100.00
5872;BME280;2962;51.312;7.378;2023-05-21T01:15:08;97548.78;;;10.40;100.00
5872;BME280;2962;51.312;7.378;2023-05-21T01:17:35;97537.00;;;10.33;100.00
5872;BME280;2962;51.312;7.378;2023-05-21T01:20:01;97540.16;;;10.35;100.00
5872;BME280;2962;51.312;7.378;2023-05-21T01:22:34;97536.16;;;10.29;100.00
5872;BME280;2962;51.312;7.378;2023-05-21T01:24:59;97530.69;;;10.29;100.00
5872;BME280;2962;51.312;7.378;2023-05-21T01:27:26;97536.00;;;10.21;100.00
5872;BME280;2962;51.312;7.378;2023-05-21T01:29:52;97541.53;;;10.25;100.00
5872;BME280;2962;51.312;7.378;2023-05-21T01:32:26;97524.97;;;10.14;100.00
5872;BME280;2962;51.312;7.378;2023-05-21T01:35:02;97523.78;;;10.12;100.00
5872;BME280;2962;51.312;7.378;2023-05-21T01:37:33;97524.97;;;10.14;100.00
5872;BME280;2962;51.312;7.378;2023-05-21T01:40:10;97533.66;;;10.20;100.00
5872;BME280;2962;51.312;7.378;2023-05-21T01:42:41;97534.81;;;10.19;100.00
5872;BME280;2962;51.312;7.378;2023-05-21T01:45:09;97527.56;;;10.26;100.00
5872;BME280;2962;51.312;7.378;2023-05-21T01:47:35;97516.03;;;10.14;100.00
5872;BME280;2962;51.312;7.378;2023-05-21T01:50:02;97529.47;;;10.26;100.00
5872;BME280;2962;51.312;7.378;2023-05-21T01:52:28;97521.25;;;10.22;100.00
5872;BME280;2962;51.312;7.378;2023-05-21T01:54:55;97514.16;;;10.18;100.00
5872;BME280;2962;51.312;7.378;2023-05-21T01:57:21;97522.81;;;10.23;100.00
5872;BME280;2962;51.312;7.378;2023-05-21T01:59:46;97519.25;;;10.19;100.00
5872;BME280;2962;51.312;7.378;2023-05-21T02:02:12;97520.69;;;10.13;100.00
5872;BME280;2962;51.312;7.378;2023-05-21T02:04:37;97527.28;;;10.12;100.00
5872;BME280;2962;51.312;7.378;2023-05-21T02:07:05;97506.75;;;9.95;100.00
5872;BME280;2962;51.312;7.378;2023-05-21T02:09:31;97521.66;;;10.01;100.00
5872;BME280;2962;51.312;7.378;2023-05-21T02:11:56;97523.53;;;9.97;100.00
5872;BME280;2962;51.312;7.378;2023-05-21T02:14:22;97531.31;;;9.99;100.00
5872;BME280;2962;51.312;7.378;2023-05-21T02:16:49;97516.03;;;9.91;100.00
5872;BME280;2962;51.312;7.378;2023-05-21T02:19:16;97521.06;;;9.89;100.00
5872;BME280;2962;51.312;7.378;2023-05-21T02:21:42;97523.34;;;9.87;100.00
5872;BME280;2962;51.312;7.378;2023-05-21T02:24:07;97520.34;;;9.92;100.00
5872;BME280;2962;51.312;7.378;2023-05-21T02:26:32;97513.59;;;9.86;100.00
5872;BME280;2962;51.312;7.378;2023-05-21T02:28:58;97514.69;;;9.81;100.00
5872;BME280;2962;51.312;7.378;2023-05-21T02:31:23;97517.34;;;9.77;100.00
5872;BME280;2962;51.312;7.378;2023-05-21T02:33:48;97516.06;;;9.71;100.00
5872;BME280;2962;51.312;7.378;2023-05-21T02:36:13;97522.84;;;9.81;100.00
5872;BME280;2962;51.312;7.378;2023-05-21T02:38:39;97510.69;;;9.75;100.00
5872;BME280;2962;51.312;7.378;2023-05-21T02:41:08;97514.97;;;9.76;100.00
5872;BME280;2962;51.312;7.378;2023-05-21T02:43:34;97522.13;;;9.84;100.00
5872;BME280;2962;51.312;7.378;2023-05-21T02:45:59;97513.16;;;9.84;100.00
5872;BME280;2962;51.312;7.378;2023-05-21T02:48:25;97526.28;;;9.78;100.00
5872;BME280;2962;51.312;7.378;2023-05-21T02:50:50;97523.88;;;9.73;100.00
5872;BME280;2962;51.312;7.378;2023-05-21T02:53:16;97513.28;;;9.68;100.00
5872;BME280;2962;51.312;7.378;2023-05-21T02:55:41;97504.84;;;9.73;100.00
5872;BME280;2962;51.312;7.378;2023-05-21T02:58:06;97522.28;;;9.72;100.00
5872;BME280;2962;51.312;7.378;2023-05-21T03:00:31;97515.84;;;9.80;100.00
5872;BME280;2962;51.312;7.378;2023-05-21T03:02:57;97513.06;;;9.76;100.00
5872;BME280;2962;51.312;7.378;2023-05-21T03:05:22;97511.06;;;9.73;100.00
5872;BME280;2962;51.312;7.378;2023-05-21T03:07:48;97513.41;;;9.75;100.00
5872;BME280;2962;51.312;7.378;2023-05-21T03:10:14;97507.97;;;9.75;100.00
5872;BME280;2962;51.312;7.378;2023-05-21T03:12:39;97509.91;;;9.74;100.00
5872;BME280;2962;51.312;7.378;2023-05-21T03:15:05;97517.22;;;9.70;100.00
5872;BME280;2962;51.312;7.378;2023-05-21T03:17:30;97507.13;;;9.71;100.00
5872;BME280;2962;51.312;7.378;2023-05-21T03:19:56;97500.50;;;9.72;100.00
5872;BME280;2962;51.312;7.378;2023-05-21T03:22:21;97492.00;;;9.73;100.00
5872;BME280;2962;51.312;7.378;2023-05-21T03:24:47;97502.03;;;9.69;100.00
5872;BME280;2962;51.312;7.378;2023-05-21T03:27:13;97498.22;;;9.74;100.00
5872;BME280;2962;51.312;7.378;2023-05-21T03:29:38;97495.88;;;9.72;100.00
5872;BME280;2962;51.312;7.378;2023-05-21T03:32:04;97496.59;;;9.69;100.00
5872;BME280;2962;51.312;7.378;2023-05-21T03:34:30;97498.16;;;9.70;100.00
5872;BME280;2962;51.312;7.378;2023-05-21T03:36:58;97503.31;;;9.75;100.00
5872;BME280;2962;51.312;7.378;2023-05-21T03:39:24;97497.44;;;9.73;100.00
5872;BME280;2962;51.312;7.378;2023-05-21T03:41:49;97490.91;;;9.78;100.00
5872;BME280;2962;51.312;7.378;2023-05-21T03:44:14;97506.03;;;9.75;100.00
5872;BME280;2962;51.312;7.378;2023-05-21T03:46:40;97500.66;;;9.79;100.00
5872;BME280;2962;51.312;7.378;2023-05-21T03:49:06;97497.16;;;9.78;100.00
5872;BME280;2962;51.312;7.378;2023-05-21T03:51:31;97497.16;;;9.78;100.00
5872;BME280;2962;51.312;7.378;2023-05-21T03:53:57;97500.72;;;9.83;100.00
5872;BME280;2962;51.312;7.378;2023-05-21T03:56:23;97488.44;;;9.69;100.00
5872;BME280;2962;51.312;7.378;2023-05-21T03:58:48;97488.50;;;9.73;100.00
5872;BME280;2962;51.312;7.378;2023-05-21T04:01:13;97495.13;;;9.75;100.00
5872;BME280;2962;51.312;7.378;2023-05-21T04:03:39;97489.69;;;9.75;100.00
5872;BME280;2962;51.312;7.378;2023-05-21T04:06:04;97487.75;;;9.76;100.00
5872;BME280;2962;51.312;7.378;2023-05-21T04:08:30;97491.34;;;9.80;100.00
5872;BME280;2962;51.312;7.378;2023-05-21T04:10:56;97484.25;;;9.75;100.00
5872;BME280;2962;51.312;7.378;2023-05-21T04:13:22;97502.19;;;9.76;100.00
5872;BME280;2962;51.312;7.378;2023-05-21T04:15:47;97503.03;;;9.81;100.00
5872;BME280;2962;51.312;7.378;2023-05-21T04:18:13;97506.94;;;9.83;100.00
5872;BME280;2962;51.312;7.378;2023-05-21T04:20:40;97498.31;;;9.77;100.00
5872;BME280;2962;51.312;7.378;2023-05-21T04:23:05;97501.16;;;9.85;100.00
5872;BME280;2962;51.312;7.378;2023-05-21T04:25:30;97494.50;;;9.82;100.00
5872;BME280;2962;51.312;7.378;2023-05-21T04:27:56;97498.31;;;9.77;100.00
5872;BME280;2962;51.312;7.378;2023-05-21T04:30:21;97506.53;;;9.81;100.00
5872;BME280;2962;51.312;7.378;2023-05-21T04:32:48;97494.00;;;9.76;100.00
5872;BME280;2962;51.312;7.378;2023-05-21T04:35:13;97500.78;;;9.86;100.00
5872;BME280;2962;51.312;7.378;2023-05-21T04:37:41;97499.47;;;9.76;100.00
5872;BME280;2962;51.312;7.378;2023-05-21T04:40:12;97502.66;;;9.82;100.00
5872;BME280;2962;51.312;7.378;2023-05-21T04:42:43;97505.75;;;9.81;100.00
5872;BME280;2962;51.312;7.378;2023-05-21T04:45:09;97508.94;;;9.86;100.00
5872;BME280;2962;51.312;7.378;2023-05-21T04:47:35;97504.34;;;9.90;100.00
5872;BME280;2962;51.312;7.378;2023-05-21T04:50:02;97507.84;;;9.91;100.00
5872;BME280;2962;51.312;7.378;2023-05-21T04:52:28;97499.41;;;9.96;100.00
5872;BME280;2962;51.312;7.378;2023-05-21T04:54:54;97512.06;;;10.08;100.00
5872;BME280;2962;51.312;7.378;2023-05-21T04:57:20;97509.66;;;10.06;100.00
5872;BME280;2962;51.312;7.378;2023-05-21T04:59:45;97501.81;;;10.01;100.00
5872;BME280;2962;51.312;7.378;2023-05-21T05:02:11;97506.59;;;10.08;100.00
5872;BME280;2962;51.312;7.378;2023-05-21T05:04:37;97496.91;;;10.10;100.00
5872;BME280;2962;51.312;7.378;2023-05-21T05:07:02;97490.47;;;10.22;100.00
5872;BME280;2962;51.312;7.378;2023-05-21T05:09:27;97496.81;;;10.26;100.00
5872;BME280;2962;51.312;7.378;2023-05-21T05:11:54;97496.88;;;10.30;100.00
5872;BME280;2962;51.312;7.378;2023-05-21T05:14:19;97507.81;;;10.33;100.00
5872;BME280;2962;51.312;7.378;2023-05-21T05:16:44;97502.38;;;10.33;100.00
5872;BME280;2962;51.312;7.378;2023-05-21T05:19:12;97506.63;;;10.31;100.00
5872;BME280;2962;51.312;7.378;2023-05-21T05:21:37;97498.41;;;10.27;100.00
5872;BME280;2962;51.312;7.378;2023-05-21T05:24:03;97494.25;;;10.37;100.00
5872;BME280;2962;51.312;7.378;2023-05-21T05:26:28;97497.47;;;10.42;100.00
5872;BME280;2962;51.312;7.378;2023-05-21T05:28:53;97495.53;;;10.43;100.00
5872;BME280;2962;51.312;7.378;2023-05-21T05:31:19;97492.53;;;10.51;100.00
5872;BME280;2962;51.312;7.378;2023-05-21T05:33:44;97491.69;;;10.47;100.00
5872;BME280;2962;51.312;7.378;2023-05-21T05:36:09;97493.28;;;10.48;100.00
5872;BME280;2962;51.312;7.378;2023-05-21T05:38:34;97497.31;;;10.58;100.00
5872;BME280;2962;51.312;7.378;2023-05-21T05:41:00;97494.59;;;10.58;100.00
5872;BME280;2962;51.312;7.378;2023-05-21T05:43:25;97491.19;;;10.65;100.00
5872;BME280;2962;51.312;7.378;2023-05-21T05:45:51;97486.81;;;10.60;100.00
5872;BME280;2962;51.312;7.378;2023-05-21T05:48:16;97480.13;;;10.54;100.00
5872;BME280;2962;51.312;7.378;2023-05-21T05:50:41;97476.25;;;10.55;100.00
5872;BME280;2962;51.312;7.378;2023-05-21T05:53:07;97478.97;;;10.55;100.00
5872;BME280;2962;51.312;7.378;2023-05-21T05:55:35;97488.88;;;10.67;100.00
5872;BME280;2962;51.312;7.378;2023-05-21T05:58:00;97486.34;;;10.81;100.00
5872;BME280;2962;51.312;7.378;2023-05-21T06:00:26;97481.22;;;10.76;100.00
5872;BME280;2962;51.312;7.378;2023-05-21T06:02:51;97486.31;;;10.78;100.00
5872;BME280;2962;51.312;7.378;2023-05-21T06:05:16;97486.81;;;10.87;100.00
5872;BME280;2962;51.312;7.378;2023-05-21T06:07:42;97482.09;;;10.84;100.00
5872;BME280;2962;51.312;7.378;2023-05-21T06:10:07;97479.69;;;10.79;100.00
5872;BME280;2962;51.312;7.378;2023-05-21T06:12:33;97486.84;;;10.90;100.00
5872;BME280;2962;51.312;7.378;2023-05-21T06:14:59;97486.28;;;11.04;100.00
5872;BME280;2962;51.312;7.378;2023-05-21T06:17:24;97482.47;;;11.12;100.00
5872;BME280;2962;51.312;7.378;2023-05-21T06:19:50;97484.78;;;11.10;100.00
5872;BME280;2962;51.312;7.378;2023-05-21T06:22:15;97488.72;;;11.13;100.00
5872;BME280;2962;51.312;7.378;2023-05-21T06:24:40;97487.28;;;11.22;100.00
5872;BME280;2962;51.312;7.378;2023-05-21T06:27:06;97492.06;;;11.33;100.00
5872;BME280;2962;51.312;7.378;2023-05-21T06:29:31;97473.31;;;11.28;100.00
5872;BME280;2962;51.312;7.378;2023-05-21T06:31:56;97488.03;;;11.57;100.00
5872;BME280;2962;51.312;7.378;2023-05-21T06:34:22;97487.25;;;11.56;100.00
5872;BME280;2962;51.312;7.378;2023-05-21T06:36:47;97493.94;;;11.59;100.00
5872;BME280;2962;51.312;7.378;2023-05-21T06:39:13;97483.13;;;11.69;100.00
5872;BME280;2962;51.312;7.378;2023-05-21T06:41:38;97481.97;;;11.70;100.00
5872;BME280;2962;51.312;7.378;2023-05-21T06:44:03;97479.03;;;11.86;100.00
5872;BME280;2962;51.312;7.378;2023-05-21T06:46:30;97470.84;;;11.86;100.00
5872;BME280;2962;51.312;7.378;2023-05-21T06:48:55;97478.03;;;12.05;100.00
5872;BME280;2962;51.312;7.378;2023-05-21T06:51:20;97473.34;;;12.06;100.00
5872;BME280;2962;51.312;7.378;2023-05-21T06:53:45;97468.44;;;12.26;100.00
5872;BME280;2962;51.312;7.378;2023-05-21T06:56:11;97465.81;;;12.40;100.00
5872;BME280;2962;51.312;7.378;2023-05-21T06:58:37;97465.50;;;12.52;100.00
5872;BME280;2962;51.312;7.378;2023-05-21T07:01:02;97452.19;;;12.43;100.00
5872;BME280;2962;51.312;7.378;2023-05-21T07:03:27;97450.09;;;12.23;100.00
5872;BME280;2962;51.312;7.378;2023-05-21T07:05:53;97460.47;;;12.58;100.00
5872;BME280;2962;51.312;7.378;2023-05-21T07:08:18;97464.47;;;12.75;100.00
5872;BME280;2962;51.312;7.378;2023-05-21T07:10:47;97461.34;;;12.73;100.00
5872;BME280;2962;51.312;7.378;2023-05-21T07:13:12;97460.63;;;12.86;100.00
5872;BME280;2962;51.312;7.378;2023-05-21T07:15:38;97455.56;;;12.85;100.00
5872;BME280;2962;51.312;7.378;2023-05-21T07:18:03;97461.38;;;12.83;100.00
5872;BME280;2962;51.312;7.378;2023-05-21T07:20:28;97459.34;;;12.66;100.00
5872;BME280;2962;51.312;7.378;2023-05-21T07:22:54;97454.38;;;12.86;100.00
5872;BME280;2962;51.312;7.378;2023-05-21T07:25:19;97453.56;;;12.78;100.00
5872;BME280;2962;51.312;7.378;2023-05-21T07:27:44;97461.38;;;12.83;100.00
5872;BME280;2962;51.312;7.378;2023-05-21T07:30:10;97460.72;;;13.04;100.00
5872;BME280;2962;51.312;7.378;2023-05-21T07:32:35;97453.75;;;13.21;100.00
5872;BME280;2962;51.312;7.378;2023-05-21T07:35:01;97453.09;;;13.46;100.00
5872;BME280;2962;51.312;7.378;2023-05-21T07:37:26;97448.75;;;13.30;100.00
5872;BME280;2962;51.312;7.378;2023-05-21T07:39:52;97446.41;;;13.32;100.00
5872;BME280;2962;51.312;7.378;2023-05-21T07:42:18;97443.72;;;13.47;100.00
5872;BME280;2962;51.312;7.378;2023-05-21T07:44:43;97457.88;;;13.81;100.00
5872;BME280;2962;51.312;7.378;2023-05-21T07:47:08;97444.19;;;13.88;100.00
5872;BME280;2962;51.312;7.378;2023-05-21T07:49:34;97459.03;;;13.98;100.00
5872;BME280;2962;51.312;7.378;2023-05-21T07:51:59;97453.59;;;14.19;100.00
5872;BME280;2962;51.312;7.378;2023-05-21T07:54:24;97447.69;;;14.42;100.00
5872;BME280;2962;51.312;7.378;2023-05-21T07:56:50;97461.72;;;14.94;100.00
5872;BME280;2962;51.312;7.378;2023-05-21T07:59:15;97456.47;;;15.32;100.00
5872;BME280;2962;51.312;7.378;2023-05-21T08:01:41;97451.38;;;15.37;100.00
5872;BME280;2962;51.312;7.378;2023-05-21T08:04:07;97459.56;;;15.45;100.00
5872;BME280;2962;51.312;7.378;2023-05-21T08:06:32;97468.03;;;15.79;100.00
5872;BME280;2962;51.312;7.378;2023-05-21T08:08:59;97469.50;;;15.91;100.00
5872;BME280;2962;51.312;7.378;2023-05-21T08:11:26;97477.13;;;15.61;100.00
5872;BME280;2962;51.312;7.378;2023-05-21T08:13:51;97485.91;;;15.28;100.00
5872;BME280;2962;51.312;7.378;2023-05-21T08:16:17;97490.31;;;15.04;100.00
5872;BME280;2962;51.312;7.378;2023-05-21T08:18:42;97476.97;;;14.99;100.00
5872;BME280;2962;51.312;7.378;2023-05-21T08:21:07;97475.50;;;14.76;100.00
5872;BME280;2962;51.312;7.378;2023-05-21T08:23:33;97490.78;;;14.59;100.00
5872;BME280;2962;51.312;7.378;2023-05-21T08:25:58;97494.69;;;14.65;100.00
5872;BME280;2962;51.312;7.378;2023-05-21T08:28:23;97495.47;;;14.55;100.00
5872;BME280;2962;51.312;7.378;2023-05-21T08:30:49;97500.94;;;14.87;100.00
5872;BME280;2962;51.312;7.378;2023-05-21T08:33:14;97495.78;;;15.07;100.00
5872;BME280;2962;51.312;7.378;2023-05-21T08:35:39;97491.91;;;14.94;100.00
5872;BME280;2962;51.312;7.378;2023-05-21T08:38:05;97478.22;;;14.76;100.00
5872;BME280;2962;51.312;7.378;2023-05-21T08:40:30;97499.34;;;14.86;100.00
5872;BME280;2962;51.312;7.378;2023-05-21T08:42:55;97504.84;;;14.79;100.00
5872;BME280;2962;51.312;7.378;2023-05-21T08:45:22;97502.50;;;14.85;100.00
5872;BME280;2962;51.312;7.378;2023-05-21T08:47:57;97498.13;;;15.05;100.00
5872;BME280;2962;51.312;7.378;2023-05-21T08:50:25;97497.31;;;15.23;100.00
5872;BME280;2962;51.312;7.378;2023-05-21T08:52:51;97487.16;;;15.09;100.00
5872;BME280;2962;51.312;7.378;2023-05-21T08:55:17;97492.13;;;15.43;100.00
5872;BME280;2962;51.312;7.378;2023-05-21T08:57:43;97491.81;;;15.23;100.00
5872;BME280;2962;51.312;7.378;2023-05-21T09:00:09;97501.56;;;15.38;100.00
5872;BME280;2962;51.312;7.378;2023-05-21T09:02:37;97487.09;;;15.30;100.00
5872;BME280;2962;51.312;7.378;2023-05-21T09:05:05;97497.19;;;15.51;100.00
5872;BME280;2962;51.312;7.378;2023-05-21T09:07:34;97483.38;;;15.76;100.00
5872;BME280;2962;51.312;7.378;2023-05-21T09:10:06;97484.91;;;15.81;100.00
5872;BME280;2962;51.312;7.378;2023-05-21T09:12:34;97474.66;;;15.89;100.00
5872;BME280;2962;51.312;7.378;2023-05-21T09:15:00;97480.34;;;16.16;100.00
5872;BME280;2962;51.312;7.378;2023-05-21T09:17:26;97470.56;;;16.11;100.00
5872;BME280;2962;51.312;7.378;2023-05-21T09:20:11;97462.31;;;16.15;100.00
5872;BME280;2962;51.312;7.378;2023-05-21T09:22:44;97474.00;;;16.26;100.00
5872;BME280;2962;51.312;7.378;2023-05-21T09:25:11;97471.28;;;16.22;100.00
5872;BME280;2962;51.312;7.378;2023-05-21T09:27:37;97464.59;;;16.68;100.00
5872;BME280;2962;51.312;7.378;2023-05-21T09:30:04;97463.41;;;16.66;100.00
5872;BME280;2962;51.312;7.378;2023-05-21T09:32:30;97456.97;;;17.17;100.00
5872;BME280;2962;51.312;7.378;2023-05-21T09:34:56;97466.31;;;17.27;100.00
5872;BME280;2962;51.312;7.378;2023-05-21T09:37:21;97459.84;;;17.41;100.00
5872;BME280;2962;51.312;7.378;2023-05-21T09:39:47;97463.41;;;17.41;100.00
5872;BME280;2962;51.312;7.378;2023-05-21T09:42:12;97457.56;;;17.36;100.00
5872;BME280;2962;51.312;7.378;2023-05-21T09:44:38;97460.16;;;17.16;100.00
5872;BME280;2962;51.312;7.378;2023-05-21T09:47:04;97468.06;;;17.44;100.00
5872;BME280;2962;51.312;7.378;2023-05-21T09:49:29;97453.91;;;17.73;100.00
5872;BME280;2962;51.312;7.378;2023-05-21T09:51:56;97456.47;;;17.87;100.00
5872;BME280;2962;51.312;7.378;2023-05-21T09:54:22;97460.28;;;17.97;100.00
5872;BME280;2962;51.312;7.378;2023-05-21T09:56:49;97462.75;;;17.91;100.00
5872;BME280;2962;51.312;7.378;2023-05-21T09:59:15;97465.06;;;18.20;100.00
5872;BME280;2962;51.312;7.378;2023-05-21T10:01:41;97455.22;;;18.19;100.00
5872;BME280;2962;51.312;7.378;2023-05-21T10:04:08;97455.63;;;18.41;100.00
5872;BME280;2962;51.312;7.378;2023-05-21T10:06:37;97446.56;;;18.64;100.00
5872;BME280;2962;51.312;7.378;2023-05-21T10:09:09;97438.78;;;18.82;100.00
5872;BME280;2962;51.312;7.378;2023-05-21T10:11:35;97443.53;;;19.21;100.00
5872;BME280;2962;51.312;7.378;2023-05-21T10:14:05;97441.13;;;19.03;100.00
5872;BME280;2962;51.312;7.378;2023-05-21T10:16:32;97441.06;;;18.87;100.00
5872;BME280;2962;51.312;7.378;2023-05-21T10:18:58;97424.56;;;18.84;100.00
5872;BME280;2962;51.312;7.378;2023-05-21T10:21:27;97439.16;;;19.04;100.00
5872;BME280;2962;51.312;7.378;2023-05-21T10:23:56;97441.03;;;19.47;100.00
5872;BME280;2962;51.312;7.378;2023-05-21T10:26:22;97429.22;;;19.83;100.00
5872;BME280;2962;51.312;7.378;2023-05-21T10:28:49;97438.94;;;19.71;100.00
5872;BME280;2962;51.312;7.378;2023-05-21T10:31:15;97438.94;;;19.35;100.00
5872;BME280;2962;51.312;7.378;2023-05-21T10:33:40;97433.47;;;19.31;100.00
5872;BME280;2962;51.312;7.378;2023-05-21T10:36:07;97431.00;;;19.17;100.00
5872;BME280;2962;51.312;7.378;2023-05-21T10:38:32;97431.78;;;19.17;100.00
5872;BME280;2962;51.312;7.378;2023-05-21T10:40:59;97436.72;;;19.06;100.00
5872;BME280;2962;51.312;7.378;2023-05-21T10:47:37;97433.88;;;19.69;100.00
5872;BME280;2962;51.312;7.378;2023-05-21T10:49:54;97426.44;;;19.83;100.00
5872;BME280;2962;51.312;7.378;2023-05-21T10:55:16;97422.56;;;19.80;100.00
5872;BME280;2962;51.312;7.378;2023-05-21T11:00:30;97424.03;;;20.17;100.00
5872;BME280;2962;51.312;7.378;2023-05-21T11:02:57;97399.66;;;20.12;100.00
5872;BME280;2962;51.312;7.378;2023-05-21T11:05:54;97418.69;;;20.27;100.00
5872;BME280;2962;51.312;7.378;2023-05-21T11:08:24;97413.28;;;20.97;100.00
5872;BME280;2962;51.312;7.378;2023-05-21T11:10:51;97415.00;;;21.20;100.00
5872;BME280;2962;51.312;7.378;2023-05-21T11:13:17;97410.34;;;21.17;100.00
5872;BME280;2962;51.312;7.378;2023-05-21T11:18:21;97399.13;;;21.50;100.00
5872;BME280;2962;51.312;7.378;2023-05-21T11:20:50;97402.47;;;21.58;100.00
5872;BME280;2962;51.312;7.378;2023-05-21T11:23:15;97396.88;;;22.09;100.00
5872;BME280;2962;51.312;7.378;2023-05-21T11:25:41;97395.22;;;22.24;100.00
5872;BME280;2962;51.312;7.378;2023-05-21T11:28:06;97387.47;;;21.93;100.00
5872;BME280;2962;51.312;7.378;2023-05-21T11:30:33;97389.69;;;21.99;100.00
5872;BME280;2962;51.312;7.378;2023-05-21T11:38:09;97408.25;;;20.18;100.00
5872;BME280;2962;51.312;7.378;2023-05-21T11:40:34;97405.44;;;20.34;100.00
5872;BME280;2962;51.312;7.378;2023-05-21T11:43:00;97393.34;;;19.79;100.00
5872;BME280;2962;51.312;7.378;2023-05-21T11:45:30;97404.16;;;20.06;100.00
5872;BME280;2962;51.312;7.378;2023-05-21T11:47:56;97410.91;;;20.05;100.00
5872;BME280;2962;51.312;7.378;2023-05-21T11:50:22;97414.09;;;20.20;100.00
5872;BME280;2962;51.312;7.378;2023-05-21T11:52:48;97407.13;;;19.99;100.00
5872;BME280;2962;51.312;7.378;2023-05-21T11:55:14;97412.63;;;19.83;100.00
5872;BME280;2962;51.312;7.378;2023-05-21T11:57:42;97409.19;;;19.95;100.00
5872;BME280;2962;51.312;7.378;2023-05-21T12:00:14;97403.91;;;20.00;100.00
5872;BME280;2962;51.312;7.378;2023-05-21T12:02:49;97394.53;;;20.60;100.00
5872;BME280;2962;51.312;7.378;2023-05-21T12:05:15;97402.69;;;20.51;100.00
5872;BME280;2962;51.312;7.378;2023-05-21T12:07:40;97405.25;;;21.29;100.00
5872;BME280;2962;51.312;7.378;2023-05-21T12:10:08;97399.03;;;21.41;100.00
5872;BME280;2962;51.312;7.378;2023-05-21T12:12:33;97390.63;;;21.15;100.00
5872;BME280;2962;51.312;7.378;2023-05-21T12:15:00;97399.16;;;21.21;100.00
5872;BME280;2962;51.312;7.378;2023-05-21T12:17:26;97390.13;;;21.33;100.00
5872;BME280;2962;51.312;7.378;2023-05-21T12:19:55;97390.03;;;21.50;100.00
5872;BME280;2962;51.312;7.378;2023-05-21T12:22:22;97395.00;;;22.06;100.00
5872;BME280;2962;51.312;7.378;2023-05-21T12:24:48;97396.91;;;21.96;100.00
5872;BME280;2962;51.312;7.378;2023-05-21T12:27:14;97402.78;;;22.58;100.00
5872;BME280;2962;51.312;7.378;2023-05-21T12:29:45;97393.47;;;21.66;100.00
5872;BME280;2962;51.312;7.378;2023-05-21T12:32:14;97398.34;;;22.13;100.00
5872;BME280;2962;51.312;7.378;2023-05-21T12:37:21;97401.13;;;21.75;100.00
5872;BME280;2962;51.312;7.378;2023-05-21T12:39:49;97402.75;;;22.36;100.00
5872;BME280;2962;51.312;7.378;2023-05-21T12:42:15;97399.13;;;23.18;100.00
5872;BME280;2962;51.312;7.378;2023-05-21T12:44:46;97402.56;;;23.53;100.00
5872;BME280;2962;51.312;7.378;2023-05-21T12:47:12;97398.31;;;24.20;100.00
5872;BME280;2962;51.312;7.378;2023-05-21T12:49:41;97396.09;;;24.83;100.00
5872;BME280;2962;51.312;7.378;2023-05-21T12:52:10;97394.78;;;25.48;100.00
5872;BME280;2962;51.312;7.378;2023-05-21T12:54:37;97393.47;;;26.58;100.00
5872;BME280;2962;51.312;7.378;2023-05-21T12:57:07;97394.34;;;27.03;100.00
5872;BME280;2962;51.312;7.378;2023-05-21T12:59:59;97388.59;;;27.36;100.00
5872;BME280;2962;51.312;7.378;2023-05-21T13:05:04;97390.03;;;27.61;100.00
5872;BME280;2962;51.312;7.378;2023-05-21T13:07:31;97391.81;;;27.94;100.00
5872;BME280;2962;51.312;7.378;2023-05-21T13:09:58;97383.06;;;27.86;100.00
5872;BME280;2962;51.312;7.378;2023-05-21T13:12:24;97376.75;;;27.26;100.00
5872;BME280;2962;51.312;7.378;2023-05-21T13:14:54;97388.09;;;27.08;100.00
5872;BME280;2962;51.312;7.378;2023-05-21T13:17:21;97376.97;;;26.45;100.00
5872;BME280;2962;51.312;7.378;2023-05-21T13:20:14;97376.22;;;26.36;100.00
5872;BME280;2962;51.312;7.378;2023-05-21T13:22:42;97385.94;;;25.92;100.00
5872;BME280;2962;51.312;7.378;2023-05-21T13:25:11;97361.09;;;25.61;100.00
5872;BME280;2962;51.312;7.378;2023-05-21T13:27:40;97376.44;;;24.59;100.00
5872;BME280;2962;51.312;7.378;2023-05-21T13:30:06;97383.06;;;23.84;100.00
5872;BME280;2962;51.312;7.378;2023-05-21T13:32:32;97374.38;;;24.23;100.00